createdAt,value
2023-04-25T00:01:37.151Z,7.68
2023-04-25T00:04:03.958Z,4.05
2023-04-25T00:06:30.704Z,5.93
2023-04-25T00:08:57.664Z,7.35
2023-04-25T00:11:24.802Z,7.93
2023-04-25T00:13:55.325Z,6.90
2023-04-25T00:16:21.880Z,6.38
2023-04-25T00:18:52.181Z,8.77
2023-04-25T00:21:20.680Z,3.55
2023-04-25T00:23:47.803Z,6.40
2023-04-25T00:26:14.355Z,8.27
2023-04-25T00:28:41.647Z,5.32
2023-04-25T00:31:08.355Z,4.88
2023-04-25T00:33:34.882Z,4.32
2023-04-25T00:36:01.601Z,8.25
2023-04-25T00:38:28.017Z,8.38
2023-04-25T00:40:56.499Z,9.65
2023-04-25T00:43:22.859Z,5.60
2023-04-25T00:45:51.589Z,6.93
2023-04-25T00:48:18.433Z,7.63
2023-04-25T00:50:52.842Z,8.23
2023-04-25T00:53:19.568Z,7.88
2023-04-25T00:55:46.386Z,7.05
2023-04-25T00:58:12.803Z,9.10
2023-04-25T01:00:41.091Z,5.47
2023-04-25T01:03:07.801Z,5.88
2023-04-25T01:05:34.490Z,10.40
2023-04-25T01:08:00.989Z,9.77
2023-04-25T01:10:27.524Z,10.20
2023-04-25T01:12:54.229Z,8.20
2023-04-25T01:15:21.124Z,11.05
2023-04-25T01:17:48.035Z,9.65
2023-04-25T01:20:15.036Z,12.02
2023-04-25T01:22:41.606Z,10.32
2023-04-25T01:25:08.614Z,7.63
2023-04-25T01:27:36.585Z,5.72
2023-04-25T01:30:04.267Z,16.83
2023-04-25T01:32:39.078Z,11.18
2023-04-25T01:35:10.604Z,8.52
2023-04-25T01:37:41.184Z,10.90
2023-04-25T01:40:09.731Z,10.27
2023-04-25T01:42:38.155Z,11.15
2023-04-25T01:45:05.285Z,8.43
2023-04-25T01:47:33.072Z,11.35
2023-04-25T01:49:59.668Z,10.23
2023-04-25T01:52:26.098Z,9.15
2023-04-25T01:54:53.643Z,8.25
2023-04-25T01:57:20.794Z,12.60
2023-04-25T01:59:47.465Z,11.55
2023-04-25T02:02:13.886Z,8.50
2023-04-25T02:04:40.563Z,6.97
2023-04-25T02:07:07.127Z,10.77
2023-04-25T02:09:33.556Z,7.18
2023-04-25T02:11:59.967Z,11.93
2023-04-25T02:14:26.481Z,8.30
2023-04-25T02:16:53.499Z,7.68
2023-04-25T02:19:19.935Z,9.45
2023-04-25T02:21:46.584Z,12.18
2023-04-25T02:24:13.047Z,11.15
2023-04-25T02:26:39.455Z,8.43
2023-04-25T02:29:06.690Z,11.88
2023-04-25T02:31:33.149Z,10.25
2023-04-25T02:33:59.547Z,10.10
2023-04-25T02:36:27.244Z,10.18
2023-04-25T02:38:53.673Z,10.52
2023-04-25T02:41:21.733Z,10.02
2023-04-25T02:43:48.380Z,10.05
2023-04-25T02:46:16.453Z,10.68
2023-04-25T02:48:45.671Z,10.38
2023-04-25T02:51:12.195Z,9.98
2023-04-25T02:53:38.571Z,9.13
2023-04-25T02:56:05.331Z,10.25
2023-04-25T02:58:31.858Z,8.07
2023-04-25T03:00:58.277Z,9.23
2023-04-25T03:03:24.972Z,9.50
2023-04-25T03:05:52.509Z,9.93
2023-04-25T03:08:19.698Z,12.70
2023-04-25T03:10:46.647Z,10.52
2023-04-25T03:13:13.096Z,10.02
2023-04-25T03:15:39.877Z,10.10
2023-04-25T03:18:06.693Z,12.88
2023-04-25T03:20:33.202Z,7.53
2023-04-25T03:22:59.820Z,14.25
2023-04-25T03:25:26.463Z,7.90
2023-04-25T03:27:53.004Z,8.55
2023-04-25T03:30:19.476Z,12.00
2023-04-25T03:32:45.946Z,7.57
2023-04-25T03:35:12.438Z,12.45
2023-04-25T03:37:38.879Z,8.20
2023-04-25T03:40:05.942Z,11.70
2023-04-25T03:42:32.405Z,10.10
2023-04-25T03:44:58.795Z,12.30
2023-04-25T03:47:25.550Z,13.48
2023-04-25T03:49:52.798Z,13.13
2023-04-25T03:52:19.434Z,11.30
2023-04-25T03:54:45.924Z,12.27
2023-04-25T03:57:12.313Z,10.15
2023-04-25T03:59:38.712Z,9.75
2023-04-25T04:02:05.294Z,8.20
2023-04-25T04:04:32.058Z,6.65
2023-04-25T04:06:58.548Z,9.25
2023-04-25T04:09:25.056Z,10.13
2023-04-25T04:11:51.485Z,7.47
2023-04-25T04:14:17.883Z,8.93
2023-04-25T04:16:44.337Z,10.00
2023-04-25T04:19:10.778Z,9.95
2023-04-25T04:21:37.253Z,5.72
2023-04-25T04:24:04.297Z,8.90
2023-04-25T04:26:32.891Z,9.35
2023-04-25T04:29:00.257Z,6.05
2023-04-25T04:31:26.731Z,5.90
2023-04-25T04:33:53.490Z,9.90
2023-04-25T04:36:23.924Z,8.82
2023-04-25T04:38:50.295Z,7.85
2023-04-25T04:41:17.187Z,9.02
2023-04-25T04:43:44.270Z,12.02
2023-04-25T04:46:11.308Z,8.55
2023-04-25T04:48:38.128Z,14.57
2023-04-25T04:51:04.548Z,8.85
2023-04-25T04:53:30.926Z,11.93
2023-04-25T04:55:57.356Z,6.43
2023-04-25T04:58:24.040Z,11.15
2023-04-25T05:00:50.822Z,13.40
2023-04-25T05:03:17.469Z,9.88
2023-04-25T05:05:44.221Z,11.27
2023-04-25T05:08:10.774Z,10.77
2023-04-25T05:10:37.188Z,16.73
2023-04-25T05:13:03.812Z,8.77
2023-04-25T05:15:30.696Z,14.88
2023-04-25T05:17:57.261Z,6.45
2023-04-25T05:20:23.916Z,12.18
2023-04-25T05:22:50.367Z,9.68
2023-04-25T05:25:16.915Z,9.65
2023-04-25T05:27:43.322Z,14.55
2023-04-25T05:30:10.512Z,10.07
2023-04-25T05:32:37.564Z,16.67
2023-04-25T05:35:04.342Z,10.48
2023-04-25T05:37:32.090Z,12.90
2023-04-25T05:39:58.605Z,9.98
2023-04-25T05:42:25.053Z,9.50
2023-04-25T05:44:51.463Z,13.52
2023-04-25T05:47:17.953Z,11.43
2023-04-25T05:49:44.396Z,7.45
2023-04-25T05:52:10.829Z,10.30
2023-04-25T05:54:37.305Z,14.50
2023-04-25T05:57:03.725Z,10.65
2023-04-25T05:59:30.135Z,11.48
2023-04-25T06:01:56.567Z,14.95
2023-04-25T06:04:23.295Z,12.00
2023-04-25T06:06:49.928Z,12.80
2023-04-25T06:09:16.457Z,17.33
2023-04-25T06:11:42.993Z,15.13
2023-04-25T06:14:09.458Z,12.07
2023-04-25T06:16:36.032Z,18.10
2023-04-25T06:19:02.499Z,20.80
2023-04-25T06:21:28.945Z,14.93
2023-04-25T06:23:55.414Z,15.00
2023-04-25T06:26:21.814Z,17.33
2023-04-25T06:28:48.268Z,18.38
2023-04-25T06:31:14.840Z,26.35
2023-04-25T06:33:41.261Z,21.10
2023-04-25T06:36:07.908Z,31.42
2023-04-25T06:38:35.742Z,20.70
2023-04-25T06:41:02.171Z,22.58
2023-04-25T06:43:28.647Z,29.00
2023-04-25T06:45:55.199Z,26.13
2023-04-25T06:48:21.584Z,21.60
2023-04-25T06:50:48.051Z,17.77
2023-04-25T06:53:14.491Z,21.17
2023-04-25T06:55:41.293Z,24.00
2023-04-25T06:58:08.159Z,22.55
2023-04-25T07:00:34.747Z,21.85
2023-04-25T07:03:01.674Z,15.20
2023-04-25T07:05:28.263Z,18.70
2023-04-25T07:07:54.700Z,25.65
2023-04-25T07:10:22.293Z,28.33
2023-04-25T07:12:48.696Z,26.20
2023-04-25T07:15:15.271Z,23.65
2023-04-25T07:17:41.704Z,24.90
2023-04-25T07:20:10.083Z,21.05
2023-04-25T07:22:36.703Z,22.55
2023-04-25T07:25:03.743Z,19.23
2023-04-25T07:27:30.427Z,21.55
2023-04-25T07:29:57.371Z,23.83
2023-04-25T07:32:24.631Z,15.10
2023-04-25T07:34:52.084Z,20.02
2023-04-25T07:37:19.760Z,24.27
2023-04-25T07:39:49.375Z,17.42
2023-04-25T07:42:15.869Z,13.32
2023-04-25T07:44:43.283Z,21.92
2023-04-25T07:47:10.564Z,18.55
2023-04-25T07:49:37.825Z,21.90
2023-04-25T07:52:06.966Z,22.05
2023-04-25T07:54:33.622Z,19.10
2023-04-25T07:57:00.630Z,21.67
2023-04-25T07:59:29.323Z,26.55
2023-04-25T08:01:58.184Z,18.15
2023-04-25T08:04:25.117Z,15.32
2023-04-25T08:06:51.741Z,18.90
2023-04-25T08:09:18.214Z,14.95
2023-04-25T08:11:44.825Z,14.25
2023-04-25T08:14:12.507Z,13.13
2023-04-25T08:16:39.119Z,15.10
2023-04-25T08:19:05.947Z,16.27
2023-04-25T08:21:32.612Z,12.13
2023-04-25T08:23:59.410Z,12.15
2023-04-25T08:26:26.506Z,19.67
2023-04-25T08:28:53.393Z,10.93
2023-04-25T08:31:19.982Z,18.40
2023-04-25T08:33:46.615Z,25.55
2023-04-25T08:36:13.199Z,15.82
2023-04-25T08:38:40.976Z,12.00
2023-04-25T08:41:07.554Z,13.85
2023-04-25T08:43:36.063Z,14.80
2023-04-25T08:46:02.659Z,12.05
2023-04-25T08:48:29.837Z,15.00
2023-04-25T08:50:57.562Z,13.20
2023-04-25T08:53:31.952Z,18.70
2023-04-25T08:56:00.410Z,17.98
2023-04-25T08:58:28.302Z,11.55
2023-04-25T09:00:54.791Z,12.50
2023-04-25T09:03:21.700Z,8.88
2023-04-25T09:05:48.301Z,15.23
2023-04-25T09:08:14.760Z,16.30
2023-04-25T09:10:41.389Z,15.55
2023-04-25T09:13:16.068Z,10.27
2023-04-25T09:15:50.037Z,16.48
2023-04-25T09:18:30.243Z,18.30
2023-04-25T09:21:12.593Z,16.00
2023-04-25T09:23:43.130Z,12.02
2023-04-25T09:26:10.486Z,9.30
2023-04-25T09:28:38.767Z,11.85
2023-04-25T09:31:05.430Z,16.90
2023-04-25T09:33:33.715Z,12.13
2023-04-25T09:36:04.406Z,17.02
2023-04-25T09:38:32.656Z,17.88
2023-04-25T09:40:59.290Z,11.20
2023-04-25T09:43:26.389Z,9.73
2023-04-25T09:45:58.755Z,13.77
2023-04-25T09:48:26.928Z,9.88
2023-04-25T09:51:11.407Z,7.88
2023-04-25T09:53:42.767Z,12.95
2023-04-25T09:56:11.394Z,10.90
2023-04-25T09:58:39.704Z,10.63
2023-04-25T10:01:08.678Z,5.63
2023-04-25T10:03:41.072Z,6.85
2023-04-25T10:06:15.360Z,7.20
2023-04-25T10:08:42.890Z,8.90
2023-04-25T10:11:09.884Z,3.60
2023-04-25T10:13:37.164Z,11.43
2023-04-25T10:16:05.828Z,9.55
2023-04-25T10:18:33.375Z,9.00
2023-04-25T10:21:04.164Z,11.00
2023-04-25T10:23:32.408Z,8.60
2023-04-25T10:25:59.788Z,7.10
2023-04-25T10:28:26.424Z,10.02
2023-04-25T10:30:59.658Z,7.03
2023-04-25T10:33:41.853Z,9.95
2023-04-25T10:36:13.254Z,7.45
2023-04-25T10:38:40.776Z,8.38
2023-04-25T10:41:09.871Z,11.70
2023-04-25T10:43:47.459Z,17.75
2023-04-25T10:46:17.945Z,5.22
2023-04-25T10:48:51.441Z,6.43
2023-04-25T10:51:23.561Z,8.65
2023-04-25T10:54:09.622Z,9.52
2023-04-25T10:56:41.663Z,9.35
2023-04-25T10:59:16.753Z,13.00
2023-04-25T11:01:45.259Z,9.35
2023-04-25T11:04:32.976Z,8.18
2023-04-25T11:07:07.480Z,8.20
2023-04-25T11:09:35.707Z,13.43
2023-04-25T11:12:02.293Z,13.45
2023-04-25T11:14:29.033Z,7.75
2023-04-25T11:17:00.660Z,11.43
2023-04-25T11:19:28.330Z,10.43
2023-04-25T11:22:01.926Z,7.65
2023-04-25T11:24:29.106Z,7.03
2023-04-25T11:26:56.041Z,12.02
2023-04-25T11:29:29.868Z,10.80
2023-04-25T11:31:58.918Z,12.05
2023-04-25T11:34:27.031Z,12.23
2023-04-25T11:36:54.182Z,10.00
2023-04-25T11:39:21.603Z,12.57
2023-04-25T11:41:48.316Z,10.48
2023-04-25T11:44:19.329Z,15.20
2023-04-25T11:46:46.340Z,10.80
2023-04-25T11:49:13.559Z,11.35
2023-04-25T11:51:44.253Z,11.35
2023-04-25T11:54:11.464Z,9.70
2023-04-25T11:56:38.004Z,8.85
2023-04-25T11:59:07.744Z,10.35
2023-04-25T12:01:39.470Z,11.45
2023-04-25T12:04:17.219Z,13.32
2023-04-25T12:06:48.452Z,10.52
2023-04-25T12:09:19.576Z,11.00
2023-04-25T12:11:53.430Z,11.98
2023-04-25T12:14:31.766Z,13.73
2023-04-25T12:17:04.762Z,11.93
2023-04-25T12:19:35.988Z,13.43
2023-04-25T12:22:06.533Z,15.40
2023-04-25T12:24:38.762Z,11.57
2023-04-25T12:27:08.939Z,9.63
2023-04-25T12:29:48.700Z,10.68
2023-04-25T12:32:16.842Z,15.57
2023-04-25T12:34:43.356Z,9.73
2023-04-25T12:37:10.317Z,7.35
2023-04-25T12:39:36.789Z,12.02
2023-04-25T12:42:04.516Z,15.50
2023-04-25T12:44:31.773Z,11.43
2023-04-25T12:46:58.273Z,7.72
2023-04-25T12:49:24.795Z,10.88
2023-04-25T12:51:52.477Z,11.50
2023-04-25T12:54:18.921Z,11.35
2023-04-25T12:56:45.363Z,10.15
2023-04-25T12:59:11.850Z,13.95
2023-04-25T13:01:38.601Z,12.48
2023-04-25T13:04:05.536Z,9.05
2023-04-25T13:06:32.274Z,13.07
2023-04-25T13:08:58.719Z,11.93
2023-04-25T13:11:25.520Z,13.02
2023-04-25T13:13:52.119Z,14.93
2023-04-25T13:16:21.747Z,10.27
2023-04-25T13:18:48.583Z,13.35
2023-04-25T13:21:15.205Z,13.23
2023-04-25T13:23:43.649Z,6.47
2023-04-25T13:26:10.169Z,11.82
2023-04-25T13:28:36.556Z,7.35
2023-04-25T13:31:03.018Z,9.18
2023-04-25T13:33:29.900Z,9.15
2023-04-25T13:35:57.961Z,4.70
2023-04-25T13:38:26.451Z,5.95
2023-04-25T13:40:53.663Z,7.03
2023-04-25T13:43:23.436Z,11.43
2023-04-25T13:45:51.238Z,12.38
2023-04-25T13:48:18.699Z,6.47
2023-04-25T13:50:45.224Z,6.88
2023-04-25T13:53:11.624Z,5.97
2023-04-25T13:55:38.432Z,8.70
2023-04-25T13:58:08.557Z,8.75
2023-04-25T14:00:38.834Z,9.15
2023-04-25T14:03:08.163Z,6.95
2023-04-25T14:05:39.929Z,9.13
2023-04-25T14:08:08.190Z,9.80
2023-04-25T14:10:36.201Z,8.10
2023-04-25T14:13:04.243Z,4.93
2023-04-25T14:15:32.824Z,3.70
2023-04-25T14:18:00.777Z,7.43
2023-04-25T14:20:27.922Z,8.40
2023-04-25T14:22:55.554Z,5.28
2023-04-25T14:25:22.316Z,4.07
2023-04-25T14:27:50.888Z,6.65
2023-04-25T14:30:19.147Z,3.42
2023-04-25T14:32:46.366Z,5.78
2023-04-25T14:35:13.020Z,9.73
2023-04-25T14:37:40.199Z,7.47
2023-04-25T14:40:09.676Z,8.70
2023-04-25T14:42:36.428Z,2.58
2023-04-25T14:45:04.648Z,5.63
2023-04-25T14:47:31.240Z,7.93
2023-04-25T14:49:57.717Z,7.53
2023-04-25T14:52:24.828Z,8.48
2023-04-25T14:54:51.894Z,2.40
2023-04-25T14:57:18.369Z,9.02
2023-04-25T14:59:44.808Z,8.20
2023-04-25T15:02:11.640Z,8.35
2023-04-25T15:04:38.324Z,23.35
2023-04-25T15:07:05.020Z,14.07
2023-04-25T15:09:31.655Z,10.73
2023-04-25T15:11:58.594Z,10.15
2023-04-25T15:14:25.243Z,9.18
2023-04-25T15:16:51.751Z,7.40
2023-04-25T15:19:18.226Z,6.15
2023-04-25T15:21:44.704Z,10.32
2023-04-25T15:24:11.991Z,7.90
2023-04-25T15:26:38.470Z,8.40
2023-04-25T15:29:06.820Z,8.15
2023-04-25T15:31:33.404Z,5.63
2023-04-25T15:33:59.917Z,5.78
2023-04-25T15:36:26.629Z,7.03
2023-04-25T15:38:53.212Z,5.68
2023-04-25T15:41:19.747Z,10.07
2023-04-25T15:43:49.103Z,7.53
2023-04-25T15:46:15.982Z,4.47
2023-04-25T15:48:42.504Z,5.32
2023-04-25T15:51:09.722Z,4.63
2023-04-25T15:53:36.384Z,4.95
2023-04-25T15:56:04.505Z,11.88
2023-04-25T15:58:30.906Z,7.03
2023-04-25T16:00:57.475Z,4.18
2023-04-25T16:03:24.158Z,6.93
2023-04-25T16:05:50.819Z,3.85
2023-04-25T16:08:17.215Z,5.88
2023-04-25T16:10:43.644Z,9.35
2023-04-25T16:13:10.104Z,5.47
2023-04-25T16:15:36.888Z,5.95
2023-04-25T16:18:04.060Z,5.63
2023-04-25T16:20:30.610Z,7.07
2023-04-25T16:22:57.023Z,3.75
2023-04-25T16:25:23.674Z,5.43
2023-04-25T16:27:50.317Z,9.20
2023-04-25T16:30:17.097Z,9.48
2023-04-25T16:32:45.398Z,8.45
2023-04-25T16:35:12.405Z,5.18
2023-04-25T16:37:38.894Z,4.60
2023-04-25T16:40:08.909Z,6.72
2023-04-25T16:42:36.275Z,11.43
2023-04-25T16:45:04.914Z,3.72
2023-04-25T16:47:31.900Z,7.43
2023-04-25T16:50:01.122Z,4.90
2023-04-25T16:52:27.618Z,6.03
2023-04-25T16:54:54.040Z,10.80
2023-04-25T16:57:21.063Z,11.07
2023-04-25T16:59:47.598Z,8.23
2023-04-25T17:02:15.243Z,7.07
2023-04-25T17:04:41.982Z,7.97
2023-04-25T17:07:09.274Z,8.00
2023-04-25T17:09:36.304Z,8.75
2023-04-25T17:12:03.964Z,9.77
2023-04-25T17:14:32.249Z,4.32
2023-04-25T17:16:58.790Z,6.85
2023-04-25T17:19:26.010Z,7.93
2023-04-25T17:21:52.570Z,9.63
2023-04-25T17:24:21.118Z,6.25
2023-04-25T17:26:48.867Z,8.88
2023-04-25T17:29:15.802Z,7.55
2023-04-25T17:31:42.718Z,9.43
2023-04-25T17:34:09.774Z,6.50
2023-04-25T17:36:36.439Z,5.53
2023-04-25T17:39:06.140Z,6.53
2023-04-25T17:41:32.607Z,7.38
2023-04-25T17:43:59.081Z,5.45
2023-04-25T17:46:27.435Z,6.35
2023-04-25T17:48:54.373Z,8.13
2023-04-25T17:51:21.375Z,5.18
2023-04-25T17:53:47.998Z,6.25
2023-04-25T17:56:25.991Z,5.95
2023-04-25T17:58:53.685Z,9.85
2023-04-25T18:01:20.519Z,6.60
2023-04-25T18:03:49.213Z,6.22
2023-04-25T18:06:17.052Z,4.63
2023-04-25T18:08:44.628Z,6.72
2023-04-25T18:11:11.847Z,6.63
2023-04-25T18:13:38.692Z,3.33
2023-04-25T18:16:05.463Z,5.47
2023-04-25T18:18:34.237Z,5.00
2023-04-25T18:21:03.802Z,4.68
2023-04-25T18:23:32.325Z,3.60
2023-04-25T18:25:58.725Z,7.95
2023-04-25T18:28:25.330Z,6.72
2023-04-25T18:30:51.767Z,5.35
2023-04-25T18:33:18.264Z,6.00
2023-04-25T18:35:55.388Z,6.25
2023-04-25T18:38:35.595Z,7.25
2023-04-25T18:41:13.062Z,7.00
2023-04-25T18:43:49.592Z,9.55
2023-04-25T18:46:17.455Z,8.02
2023-04-25T18:48:43.983Z,6.75
2023-04-25T18:51:10.622Z,9.15
2023-04-25T18:53:37.426Z,5.80
2023-04-25T18:56:04.588Z,9.10
2023-04-25T18:58:31.237Z,6.50
2023-04-25T19:00:57.706Z,8.68
2023-04-25T19:03:24.405Z,6.95
2023-04-25T19:05:51.037Z,8.02
2023-04-25T19:08:17.809Z,7.35
2023-04-25T19:10:44.551Z,7.93
2023-04-25T19:13:11.078Z,8.60
2023-04-25T19:15:37.921Z,6.50
2023-04-25T19:18:04.777Z,7.75
2023-04-25T19:20:33.626Z,8.70
2023-04-25T19:23:00.076Z,7.53
2023-04-25T19:25:26.916Z,8.75
2023-04-25T19:27:53.458Z,3.55
2023-04-25T19:30:20.076Z,6.32
2023-04-25T19:32:46.583Z,5.85
2023-04-25T19:35:13.402Z,7.95
2023-04-25T19:37:45.823Z,5.13
2023-04-25T19:40:17.533Z,6.97
2023-04-25T19:42:44.463Z,4.72
2023-04-25T19:45:12.135Z,6.78
2023-04-25T19:47:38.724Z,10.40
2023-04-25T19:50:09.643Z,10.60
2023-04-25T19:52:39.909Z,5.70
2023-04-25T19:55:07.259Z,6.85
2023-04-25T19:57:38.089Z,6.40
2023-04-25T20:00:08.961Z,7.65
2023-04-25T20:02:35.680Z,2.83
2023-04-25T20:05:03.381Z,9.40
2023-04-25T20:07:29.888Z,9.60
2023-04-25T20:09:56.542Z,3.85
2023-04-25T20:12:23.028Z,3.63
2023-04-25T20:14:49.546Z,6.15
2023-04-25T20:17:16.037Z,6.45
2023-04-25T20:19:42.455Z,6.55
2023-04-25T20:22:08.915Z,7.32
2023-04-25T20:24:35.284Z,6.43
2023-04-25T20:27:02.811Z,7.07
2023-04-25T20:29:29.250Z,8.15
2023-04-25T20:31:55.868Z,7.07
2023-04-25T20:34:22.737Z,9.43
2023-04-25T20:36:49.237Z,8.57
2023-04-25T20:39:15.682Z,7.55
2023-04-25T20:41:42.600Z,7.70
2023-04-25T20:44:09.660Z,10.20
2023-04-25T20:46:36.229Z,8.45
2023-04-25T20:49:05.010Z,7.05
2023-04-25T20:51:32.731Z,3.97
2023-04-25T20:54:00.141Z,10.13
2023-04-25T20:56:26.720Z,6.35
2023-04-25T20:58:53.872Z,9.45
2023-04-25T21:01:20.652Z,8.07
2023-04-25T21:03:50.081Z,8.85
2023-04-25T21:06:16.871Z,6.57
2023-04-25T21:08:43.722Z,12.85
2023-04-25T21:11:11.051Z,12.10
2023-04-25T21:13:37.549Z,5.63
2023-04-25T21:16:04.622Z,13.35
2023-04-25T21:18:31.894Z,7.07
2023-04-25T21:20:58.854Z,8.63
2023-04-25T21:23:25.266Z,4.72
2023-04-25T21:25:53.361Z,4.43
2023-04-25T21:28:20.806Z,7.82
2023-04-25T21:30:47.435Z,12.38
2023-04-25T21:33:14.173Z,11.90
2023-04-25T21:35:40.720Z,4.85
2023-04-25T21:38:07.776Z,9.50
2023-04-25T21:40:35.076Z,5.20
2023-04-25T21:43:02.086Z,11.25
2023-04-25T21:45:29.183Z,7.32
2023-04-25T21:47:55.760Z,4.63
2023-04-25T21:50:22.330Z,18.38
2023-04-25T21:52:48.778Z,8.63
2023-04-25T21:55:16.393Z,6.47
2023-04-25T21:57:43.281Z,7.20
2023-04-25T22:00:20.980Z,6.65
2023-04-25T22:02:51.556Z,13.23
2023-04-25T22:05:21.020Z,5.30
2023-04-25T22:07:51.099Z,9.43
2023-04-25T22:10:18.361Z,8.90
2023-04-25T22:12:45.004Z,6.43
2023-04-25T22:15:14.574Z,7.60
2023-04-25T22:17:41.005Z,6.93
2023-04-25T22:20:13.489Z,11.02
2023-04-25T22:22:44.197Z,13.15
2023-04-25T22:25:12.436Z,6.47
2023-04-25T22:27:43.572Z,7.93
2023-04-25T22:30:14.354Z,9.13
2023-04-25T22:32:41.556Z,10.57
2023-04-25T22:35:09.025Z,8.88
2023-04-25T22:37:35.912Z,8.70
2023-04-25T22:40:07.106Z,11.27
2023-04-25T22:42:40.656Z,9.48
2023-04-25T22:45:08.234Z,10.85
2023-04-25T22:47:39.342Z,9.00
2023-04-25T22:50:07.774Z,11.07
2023-04-25T22:52:34.703Z,9.15
2023-04-25T22:55:04.372Z,10.55
2023-04-25T22:57:31.280Z,4.75
2023-04-25T22:59:57.803Z,6.25
2023-04-25T23:02:27.625Z,7.30
2023-04-25T23:04:54.828Z,6.00
2023-04-25T23:07:21.435Z,12.88
2023-04-25T23:09:47.868Z,4.07
2023-04-25T23:12:17.771Z,9.80
2023-04-25T23:14:44.196Z,7.80
2023-04-25T23:17:11.411Z,6.68
2023-04-25T23:19:38.311Z,8.80
2023-04-25T23:22:05.794Z,9.85
2023-04-25T23:24:37.548Z,10.43
2023-04-25T23:27:04.037Z,7.95
2023-04-25T23:29:33.168Z,9.73
2023-04-25T23:32:01.493Z,13.13
2023-04-25T23:34:31.671Z,15.90
2023-04-25T23:37:01.118Z,8.15
2023-04-25T23:39:28.272Z,8.07
2023-04-25T23:41:54.928Z,6.03
2023-04-25T23:44:22.152Z,7.50
2023-04-25T23:46:48.756Z,6.95
2023-04-25T23:49:15.487Z,7.40
2023-04-25T23:51:41.894Z,5.75
2023-04-25T23:54:08.322Z,8.75
2023-04-25T23:56:34.751Z,9.30
2023-04-25T23:59:01.198Z,7.78
